Terminal Aerodrome Forecast
Issued by NWS Sterling, VA

Current Version | Previous Version | Text Only | Print | Product List | Glossary Off
Versions: 1 2 3 4 5 6 7 8 9 10 11 12 13 14 15 16

000
FTUS41 KLWX 290857 AAA
TAFMRB
TAF AMD
KMRB 290857Z 2909/3006 VRB03KT 5SM BR SCT050
     FM291100 00000KT 3SM BR SCT050
     FM291200 00000KT P6SM SCT060
     FM300000 17005KT P6SM BKN045
     FM300100 18005KT P6SM SCT050
     FM300300 20004KT P6SM SCT250=

USA.gov is the U.S. government's official web portal to all federal, state and local government web resources and services.